Time;durP1;ratioP1;P1;durP2;ratioP2;P2;SDS_P1;SDS_P2;PMS_P1;PMS_P2;Temp;Humidity;BMP_temperature;BMP_pressure;BME280_temperature;BME280_humidity;BME280_pressure;Samples;Min_cycle;Max_cycle;Signal;HPM_P1;HPM_P2
2021/10/29 00:00:27;;;;;;;23.13;17.55;;;;;;;15.15;67.82;102166.75;5031625;27;103743;-65
2021/10/29 00:02:53;;;;;;;20.27;16.87;;;;;;;15.13;67.82;102167.00;5029874;27;103439;-65
2021/10/29 00:05:19;;;;;;;20.52;17.17;;;;;;;15.13;67.96;102167.00;5035723;27;102400;-65
2021/10/29 00:07:46;;;;;;;22.00;17.05;;;;;;;15.14;67.51;102163.16;5022932;27;102734;-65
2021/10/29 00:10:12;;;;;;;23.15;16.58;;;;;;;15.13;67.84;102164.25;5033121;27;103880;-65
2021/10/29 00:12:39;;;;;;;19.58;16.48;;;;;;;15.14;67.85;102165.88;5035813;27;102349;-65
2021/10/29 00:15:06;;;;;;;21.35;16.58;;;;;;;15.13;67.55;102164.25;5035066;27;102534;-66
2021/10/29 00:17:35;;;;;;;22.20;17.98;;;;;;;15.13;67.87;102158.75;5034616;27;102227;-65
2021/10/29 00:20:01;;;;;;;24.58;17.67;;;;;;;15.12;67.73;102162.59;5019556;27;103906;-65
2021/10/29 00:22:28;;;;;;;24.55;18.17;;;;;;;15.13;67.54;102157.94;5029723;27;102264;-66
2021/10/29 00:24:54;;;;;;;21.10;17.30;;;;;;;15.13;67.60;102160.69;5028442;27;102270;-66
2021/10/29 00:27:21;;;;;;;20.58;17.23;;;;;;;15.13;67.59;102158.75;5025902;27;102421;-66
2021/10/29 00:29:48;;;;;;;23.70;18.05;;;;;;;15.13;67.87;102156.03;5029604;27;103399;-66
2021/10/29 00:32:14;;;;;;;22.10;17.80;;;;;;;15.13;67.70;102164.25;5031683;27;102634;-66
2021/10/29 00:34:42;;;;;;;23.63;17.80;;;;;;;15.13;67.75;102153.28;5028127;27;102255;-66
2021/10/29 00:37:09;;;;;;;24.40;18.30;;;;;;;15.13;67.51;102147.81;5033525;27;102754;-65
2021/10/29 00:39:35;;;;;;;22.65;17.83;;;;;;;15.13;67.79;102153.28;5031409;27;104044;-64
2021/10/29 00:42:02;;;;;;;21.92;17.45;;;;;;;15.12;67.65;102146.16;5034480;27;101991;-65
2021/10/29 00:44:28;;;;;;;25.40;18.65;;;;;;;15.14;67.87;102151.38;5027774;27;102948;-65
2021/10/29 00:46:54;;;;;;;21.98;16.95;;;;;;;15.13;67.43;102141.50;5021860;27;102608;-66
2021/10/29 00:49:22;;;;;;;23.73;18.00;;;;;;;15.12;67.47;102151.63;5019477;27;104150;-65
2021/10/29 00:51:51;;;;;;;22.27;17.60;;;;;;;15.12;68.08;102148.91;5025450;27;102121;-65
2021/10/29 00:54:19;;;;;;;24.85;17.58;;;;;;;15.12;67.68;102154.38;5028112;27;102303;-65
2021/10/29 00:56:48;;;;;;;23.92;17.15;;;;;;;15.12;68.00;102154.38;5023924;27;102306;-65
2021/10/29 00:59:17;;;;;;;24.92;18.90;;;;;;;15.12;67.61;102153.56;5024075;27;103997;-66
2021/10/29 01:01:44;;;;;;;22.25;17.40;;;;;;;15.12;67.56;102157.13;5028185;27;102709;-65
2021/10/29 01:04:10;;;;;;;25.38;18.50;;;;;;;15.13;67.46;102147.81;5028149;27;106089;-65
2021/10/29 01:06:38;;;;;;;24.42;19.42;;;;;;;15.11;67.76;102150.00;5028674;27;102194;-65
2021/10/29 01:09:06;;;;;;;25.10;18.67;;;;;;;15.13;67.84;102152.47;5028663;27;105946;-66
2021/10/29 01:11:33;;;;;;;21.67;16.77;;;;;;;15.12;67.72;102151.63;5035145;27;102186;-65
2021/10/29 01:13:59;;;;;;;25.55;18.95;;;;;;;15.11;67.77;102150.00;5027623;27;102358;-65
2021/10/29 01:16:25;;;;;;;21.50;17.98;;;;;;;15.12;67.47;102151.63;5023483;27;102165;-65
2021/10/29 01:18:52;;;;;;;25.27;17.88;;;;;;;15.11;67.66;102155.47;5028178;27;104199;-66
2021/10/29 01:21:19;;;;;;;23.65;17.95;;;;;;;15.11;68.11;102150.00;5031290;27;102323;-66
2021/10/29 01:23:46;;;;;;;24.70;18.30;;;;;;;15.12;67.90;102151.63;5023507;27;102237;-65
2021/10/29 01:26:16;;;;;;;24.88;18.50;;;;;;;15.11;67.84;102147.25;5033065;27;102269;-65
2021/10/29 01:28:43;;;;;;;22.52;17.48;;;;;;;15.11;67.75;102152.75;5027329;27;104013;-65
2021/10/29 01:31:10;;;;;;;25.15;18.77;;;;;;;15.11;67.56;102155.47;5025861;27;102150;-66
2021/10/29 01:33:37;;;;;;;23.25;17.83;;;;;;;15.10;67.87;102145.59;5026606;27;102105;-65
2021/10/29 01:36:04;;;;;;;23.55;17.85;;;;;;;15.11;67.54;102150.00;5029577;27;102402;-65
2021/10/29 01:38:35;;;;;;;26.60;18.48;;;;;;;15.11;67.62;102144.50;5027402;27;104179;-65
2021/10/29 01:41:03;;;;;;;23.52;18.45;;;;;;;15.11;67.61;102149.16;5023328;27;106364;-67
2021/10/29 01:43:31;;;;;;;24.03;18.17;;;;;;;15.11;67.55;102155.47;5028304;27;102541;-65
2021/10/29 01:45:58;;;;;;;23.35;17.98;;;;;;;15.11;67.80;102149.16;5033753;27;102440;-66
2021/10/29 01:48:24;;;;;;;20.75;17.23;;;;;;;15.11;67.62;102150.00;5029445;27;104054;-65
2021/10/29 01:50:51;;;;;;;23.65;17.67;;;;;;;15.11;67.56;102150.00;5048437;27;102598;-66
2021/10/29 01:53:17;;;;;;;20.67;17.17;;;;;;;15.10;67.53;102156.56;5040906;27;102165;-65
2021/10/29 01:55:45;;;;;;;23.58;18.45;;;;;;;15.11;67.88;102152.75;5048244;27;102258;-66
2021/10/29 01:58:12;;;;;;;21.60;17.63;;;;;;;15.10;67.78;102148.31;5033707;27;103887;-66
2021/10/29 02:00:38;;;;;;;21.60;17.50;;;;;;;15.09;67.68;102149.44;5035159;27;102306;-65
2021/10/29 02:03:04;;;;;;;22.25;17.33;;;;;;;15.11;67.41;102154.63;5028538;27;103009;-65
2021/10/29 02:05:31;;;;;;;22.05;16.83;;;;;;;15.10;68.08;102148.31;5033159;27;102274;-65
2021/10/29 02:07:57;;;;;;;21.48;17.08;;;;;;;15.10;67.79;102153.00;5036796;27;102992;-65
2021/10/29 02:10:24;;;;;;;21.80;16.45;;;;;;;15.10;68.08;102153.00;5027762;27;102406;-66
2021/10/29 02:12:52;;;;;;;22.10;18.05;;;;;;;15.09;67.91;102152.16;5028836;27;102757;-58
2021/10/29 02:15:19;;;;;;;23.08;18.13;;;;;;;15.10;67.90;102159.28;5027082;27;102743;-65
2021/10/29 02:17:45;;;;;;;22.23;17.98;;;;;;;15.09;67.57;102163.13;5027828;27;103943;-63
2021/10/29 02:20:11;;;;;;;21.83;16.85;;;;;;;15.10;67.72;102161.22;5034099;27;102255;-65
2021/10/29 02:22:39;;;;;;;21.73;16.88;;;;;;;15.11;67.77;102165.59;5022892;27;102147;-65
2021/10/29 02:25:06;;;;;;;22.08;17.27;;;;;;;15.10;67.58;102170.25;5034265;27;102474;-66
2021/10/29 02:27:34;;;;;;;21.48;17.38;;;;;;;15.10;67.59;102174.94;5034756;27;103835;-64
2021/10/29 02:30:03;;;;;;;23.48;17.98;;;;;;;15.10;67.68;102166.69;5037159;27;102149;-66
2021/10/29 02:32:32;;;;;;;21.38;16.52;;;;;;;15.09;67.77;102168.63;5031042;27;102578;-65
2021/10/29 02:34:59;;;;;;;22.80;17.35;;;;;;;15.09;67.66;102168.63;5031452;27;102323;-65
2021/10/29 02:37:25;;;;;;;22.00;17.92;;;;;;;15.09;67.50;102174.09;5029979;27;103656;-66
2021/10/29 02:39:52;;;;;;;21.48;16.73;;;;;;;15.08;67.81;102175.22;5031490;27;102270;-66
2021/10/29 02:42:19;;;;;;;20.55;16.08;;;;;;;15.10;67.68;102170.25;5030650;27;102221;-65
2021/10/29 02:44:45;;;;;;;20.17;16.35;;;;;;;15.09;67.74;102174.09;5034595;27;102358;-65
2021/10/29 02:47:13;;;;;;;22.17;16.25;;;;;;;15.09;68.15;102170.53;5030610;27;104246;-65
2021/10/29 02:49:40;;;;;;;24.05;17.15;;;;;;;15.09;67.55;102171.38;5033363;27;102254;-66
2021/10/29 02:52:07;;;;;;;20.35;16.25;;;;;;;15.09;67.50;102171.38;5034994;27;102768;-65
2021/10/29 02:54:33;;;;;;;20.52;17.40;;;;;;;15.09;68.05;102168.63;5028567;27;102128;-65
2021/10/29 02:57:00;;;;;;;20.23;16.17;;;;;;;15.09;68.10;102176.84;5034284;27;103654;-65
2021/10/29 02:59:26;;;;;;;21.08;16.98;;;;;;;15.09;67.64;102174.09;5031364;27;102466;-65
2021/10/29 03:01:52;;;;;;;19.45;16.38;;;;;;;15.09;67.68;102185.06;5030798;27;102326;-65
2021/10/29 03:04:20;;;;;;;20.73;16.35;;;;;;;15.09;67.63;102174.09;5036316;27;102289;-65
2021/10/29 03:06:47;;;;;;;19.80;15.60;;;;;;;15.09;67.65;102176.84;5022088;27;103720;-65
2021/10/29 03:09:13;;;;;;;19.38;15.90;;;;;;;15.09;67.90;102174.09;5037265;27;102138;-65
2021/10/29 03:11:40;;;;;;;18.70;15.55;;;;;;;15.09;67.87;102179.59;5022995;27;102243;-65
2021/10/29 03:14:06;;;;;;;19.45;16.15;;;;;;;15.09;67.88;102181.50;5026477;27;102219;-65
2021/10/29 03:16:34;;;;;;;22.85;16.48;;;;;;;15.08;67.75;102183.44;5030433;27;103883;-65
2021/10/29 03:19:00;;;;;;;19.45;16.33;;;;;;;15.08;67.91;102180.69;5033792;27;102552;-65
2021/10/29 03:21:29;;;;;;;20.52;16.40;;;;;;;15.09;68.04;102182.34;5030021;27;103033;-65
2021/10/29 03:23:55;;;;;;;22.57;16.40;;;;;;;15.08;67.68;102183.44;5031190;27;103604;-65
2021/10/29 03:26:21;;;;;;;18.30;15.13;;;;;;;15.09;67.65;102181.50;5033102;27;103685;-65
2021/10/29 03:28:48;;;;;;;19.42;16.15;;;;;;;15.08;67.85;102177.94;5033405;27;102271;-65
2021/10/29 03:31:15;;;;;;;19.17;15.25;;;;;;;15.09;67.80;102174.09;5029777;27;102302;-65
2021/10/29 03:33:41;;;;;;;18.80;15.43;;;;;;;15.08;67.94;102182.59;5037452;27;102807;-65
2021/10/29 03:36:08;;;;;;;19.10;15.32;;;;;;;15.09;67.99;102176.03;5036191;27;103896;-65
2021/10/29 03:41:21;;;;;;;19.92;16.13;;;;;;;15.08;67.70;102186.19;5028999;27;102118;-65
2021/10/29 03:46:28;;;;;;;18.95;16.13;;;;;;;15.08;67.51;102182.59;5030927;27;103590;-65
2021/10/29 03:51:26;;;;;;;17.85;15.45;;;;;;;15.07;67.67;102198.25;5024437;27;102172;-65
2021/10/29 03:56:27;;;;;;;20.85;15.82;;;;;;;15.07;67.93;102195.50;5028512;27;103881;-66
2021/10/29 03:58:55;;;;;;;21.38;16.00;;;;;;;15.07;67.63;102198.25;5032735;27;102116;-65
2021/10/29 04:01:22;;;;;;;19.63;15.95;;;;;;;15.08;67.94;102204.53;5034336;27;102608;-66
2021/10/29 04:03:49;;;;;;;18.48;15.60;;;;;;;15.07;67.99;102197.38;5034854;27;102448;-65
2021/10/29 04:06:16;;;;;;;18.85;16.15;;;;;;;15.07;67.81;102191.91;5030778;27;103846;-66
2021/10/29 04:08:44;;;;;;;20.88;16.02;;;;;;;15.08;67.71;102199.88;5022273;27;102470;-66
2021/10/29 04:11:12;;;;;;;19.42;15.25;;;;;;;15.08;68.03;102204.53;5030763;27;102426;-66
2021/10/29 04:13:43;;;;;;;19.52;14.90;;;;;;;15.08;67.58;102207.28;5034042;27;103131;-66
2021/10/29 04:16:10;;;;;;;18.42;15.10;;;;;;;15.07;67.96;102206.47;5034519;27;108065;-65
2021/10/29 04:18:38;;;;;;;19.05;14.45;;;;;;;15.08;67.84;102213.59;5031955;27;102128;-65
2021/10/29 04:21:04;;;;;;;19.10;15.43;;;;;;;15.07;68.02;102206.47;5028034;27;102741;-66
2021/10/29 04:23:31;;;;;;;20.65;15.02;;;;;;;15.07;67.68;102209.22;5029110;27;102327;-65
2021/10/29 04:25:57;;;;;;;20.77;15.82;;;;;;;15.07;67.68;102214.69;5035273;27;103919;-65
2021/10/29 04:28:26;;;;;;;17.58;14.45;;;;;;;15.07;67.92;102217.44;5023411;27;102209;-65
2021/10/29 04:30:53;;;;;;;17.77;15.60;;;;;;;15.08;67.89;102215.50;5031796;27;103588;-65
2021/10/29 04:33:20;;;;;;;17.85;15.10;;;;;;;15.07;67.76;102219.31;5032362;27;102470;-65
2021/10/29 04:35:50;;;;;;;16.92;14.25;;;;;;;15.07;68.10;102220.19;5032605;27;103416;-65
2021/10/29 04:38:16;;;;;;;17.15;14.48;;;;;;;15.08;68.05;102221.00;5027993;27;102131;-66
2021/10/29 04:40:43;;;;;;;17.52;14.57;;;;;;;15.07;67.97;102222.91;5026588;27;102188;-65
2021/10/29 04:43:11;;;;;;;17.55;14.50;;;;;;;15.06;67.54;102223.16;5030033;27;102334;-66
2021/10/29 04:45:39;;;;;;;18.33;15.38;;;;;;;15.06;67.83;102229.47;5020099;28;103762;-65
2021/10/29 04:48:06;;;;;;;17.83;15.03;;;;;;;15.07;68.07;102231.13;5028480;27;102632;-65
2021/10/29 04:50:32;;;;;;;18.15;14.68;;;;;;;15.06;68.07;102229.47;5030377;27;102548;-65
2021/10/29 04:52:59;;;;;;;18.17;14.43;;;;;;;15.06;67.95;102240.44;5027947;27;102841;-65
2021/10/29 04:55:26;;;;;;;18.50;14.73;;;;;;;15.07;68.13;102239.38;5028307;27;104074;-66
2021/10/29 04:57:53;;;;;;;16.77;14.43;;;;;;;15.07;67.90;102242.13;5019198;27;102053;-65
2021/10/29 05:00:20;;;;;;;19.05;15.32;;;;;;;15.07;67.98;102246.75;5024341;27;102303;-65
2021/10/29 05:02:49;;;;;;;16.08;14.38;;;;;;;15.07;67.77;102253.06;5034132;27;102292;-65
2021/10/29 05:05:15;;;;;;;17.77;15.05;;;;;;;15.07;67.85;102258.56;5029282;27;104140;-66
2021/10/29 05:07:42;;;;;;;19.17;14.85;;;;;;;15.07;67.60;102258.56;5032402;27;102360;-66
2021/10/29 05:10:10;;;;;;;18.42;14.85;;;;;;;15.06;67.73;102253.31;5024979;27;102779;-65
2021/10/29 05:12:36;;;;;;;17.08;14.05;;;;;;;15.07;67.90;102258.56;5035331;27;102848;-66
2021/10/29 05:15:03;;;;;;;19.00;14.15;;;;;;;15.07;68.02;102269.53;5027301;27;103944;-67
2021/10/29 05:17:30;;;;;;;16.60;13.82;;;;;;;15.08;67.85;102264.88;5020681;27;102547;-65
2021/10/29 05:19:57;;;;;;;18.30;14.60;;;;;;;15.07;67.63;102269.53;5022954;27;102332;-65
2021/10/29 05:22:24;;;;;;;18.30;15.02;;;;;;;15.07;68.03;102272.28;5035815;27;102217;-65
2021/10/29 05:24:50;;;;;;;18.60;14.38;;;;;;;15.07;67.76;102268.69;5023027;27;103923;-65
2021/10/29 05:27:17;;;;;;;15.93;14.20;;;;;;;15.07;68.01;102269.53;5032338;27;102296;-65
2021/10/29 05:29:43;;;;;;;18.13;14.35;;;;;;;15.07;67.90;102272.28;5028411;27;102392;-65
2021/10/29 05:32:09;;;;;;;18.27;14.52;;;;;;;15.08;67.77;102281.31;5032166;27;102659;-65
2021/10/29 05:34:36;;;;;;;17.70;14.82;;;;;;;15.07;67.78;102269.53;5029025;27;104148;-65
2021/10/29 05:37:04;;;;;;;18.88;14.93;;;;;;;15.07;68.08;102277.75;5022257;27;102299;-65
2021/10/29 05:39:32;;;;;;;17.23;14.40;;;;;;;15.07;67.93;102280.50;5028705;27;102145;-65
2021/10/29 05:41:58;;;;;;;17.25;14.52;;;;;;;15.07;68.09;102283.25;5027291;27;102140;-65
2021/10/29 05:44:25;;;;;;;17.95;13.82;;;;;;;15.07;67.67;102288.72;5033653;27;104058;-65
2021/10/29 05:46:51;;;;;;;17.67;14.85;;;;;;;15.08;67.95;102273.09;5026783;27;102167;-65
2021/10/29 05:49:18;;;;;;;19.05;14.48;;;;;;;15.08;67.84;102282.13;5027372;27;102079;-65
2021/10/29 05:51:47;;;;;;;19.27;14.25;;;;;;;15.09;68.13;102289.28;5024228;27;102533;-65
2021/10/29 05:57:01;;;;;;;17.70;14.68;;;;;;;15.07;68.00;102291.47;5026027;27;105097;-66
2021/10/29 05:59:28;;;;;;;16.38;14.00;;;;;;;15.09;67.90;102297.50;5027466;27;102444;-65
2021/10/29 06:01:54;;;;;;;16.08;14.35;;;;;;;15.08;67.77;102297.78;5031577;27;102282;-65
2021/10/29 06:04:20;;;;;;;16.92;14.40;;;;;;;15.08;67.70;102309.56;5029152;27;103916;-65
2021/10/29 06:06:47;;;;;;;19.15;15.05;;;;;;;15.08;68.10;102304.06;5025260;27;102395;-65
2021/10/29 06:09:15;;;;;;;18.45;14.48;;;;;;;15.08;68.29;102304.06;5021869;27;102287;-65
2021/10/29 06:11:41;;;;;;;17.00;14.00;;;;;;;15.09;67.96;102304.91;5026526;27;102248;-65
2021/10/29 06:14:07;;;;;;;16.55;13.93;;;;;;;15.08;67.90;102304.06;5023472;27;104124;-65
2021/10/29 06:16:34;;;;;;;16.60;14.05;;;;;;;15.08;68.13;102309.56;5022061;27;102969;-64
2021/10/29 06:19:01;;;;;;;17.70;14.38;;;;;;;15.09;68.23;102305.72;5022186;27;102432;-65
2021/10/29 06:21:38;;;;;;;17.50;14.25;;;;;;;15.09;67.89;102313.94;5023907;27;102533;-65
2021/10/29 06:24:09;;;;;;;18.33;15.20;;;;;;;15.09;68.04;102311.19;5023215;27;104061;-65
2021/10/29 06:26:51;;;;;;;18.67;15.50;;;;;;;15.09;68.13;102313.94;5023609;27;102327;-62
2021/10/29 06:29:18;;;;;;;16.88;14.23;;;;;;;15.10;68.10;102315.59;5026874;27;104509;-65
2021/10/29 06:31:45;;;;;;;18.15;14.82;;;;;;;15.10;67.84;102317.50;5026105;27;103327;-66
2021/10/29 06:34:12;;;;;;;20.30;15.32;;;;;;;15.09;68.10;102313.94;5030531;27;103930;-66
2021/10/29 06:36:39;;;;;;;19.90;14.98;;;;;;;15.10;68.01;102317.50;5035737;27;102451;-65
2021/10/29 06:39:06;;;;;;;18.80;14.90;;;;;;;15.08;67.96;102309.56;5046522;27;102539;-65
2021/10/29 06:41:34;;;;;;;18.90;15.32;;;;;;;15.09;67.74;102322.16;5047280;27;101968;-65
2021/10/29 06:44:09;;;;;;;18.38;15.05;;;;;;;15.10;68.09;102320.25;5037698;27;104030;-65
2021/10/29 06:46:43;;;;;;;19.67;15.55;;;;;;;15.10;68.10;102323.81;5023000;27;102317;-65
2021/10/29 06:52:03;;;;;;;19.08;15.02;;;;;;;15.10;67.75;102323.00;5040087;27;102705;-65
2021/10/29 07:41:13;;;;;;;23.48;17.17;;;;;;;15.08;67.90;102323.28;5024890;27;102512;-68
2021/10/29 07:44:00;;;;;;;53.90;19.55;;;;;;;15.09;67.53;102327.66;5033074;27;102565;-64
2021/10/29 07:46:29;;;;;;;22.52;17.65;;;;;;;15.08;67.90;102331.50;5025297;27;102570;-65
2021/10/29 07:48:56;;;;;;;;;;;;;;;15.09;68.06;102326.84;5021776;27;104032;-65
2021/10/29 07:51:23;;;;;;;24.42;17.73;;;;;;;15.08;67.65;102331.50;5030621;27;102334;-65
2021/10/29 07:53:49;;;;;;;20.25;16.60;;;;;;;15.09;67.64;102327.66;5022376;27;102072;-65
2021/10/29 07:56:16;;;;;;;23.15;17.35;;;;;;;15.09;67.94;102332.31;5025246;27;102260;-65
2021/10/29 07:58:42;;;;;;;19.90;17.02;;;;;;;15.08;68.00;102339.72;5018978;27;103966;-64
2021/10/29 08:01:08;;;;;;;21.10;17.58;;;;;;;15.10;68.00;102342.19;5026532;27;102196;-65
2021/10/29 08:03:35;;;;;;;23.42;17.33;;;;;;;15.10;68.00;102339.44;5035625;27;102219;-66
2021/10/29 08:06:03;;;;;;;23.23;18.10;;;;;;;15.08;67.90;102342.47;5033804;27;102188;-65
2021/10/29 08:08:30;;;;;;;23.48;18.10;;;;;;;15.07;67.97;102349.03;5019695;27;104068;-65
2021/10/29 08:10:57;;;;;;;27.35;18.48;;;;;;;15.09;67.97;102354.25;5030553;27;102150;-63
2021/10/29 08:13:24;;;;;;;24.42;18.05;;;;;;;15.07;67.88;102351.78;5024932;27;102168;-65
2021/10/29 08:15:55;;;;;;;22.17;18.13;;;;;;;15.09;67.83;102359.75;5034975;27;102760;-66
2021/10/29 08:18:23;;;;;;;22.88;17.83;;;;;;;15.08;67.67;102353.44;5026573;27;103711;-65
2021/10/29 08:20:49;;;;;;;24.30;19.77;;;;;;;15.07;67.66;102360.00;5030008;27;102339;-65
2021/10/29 08:23:17;;;;;;;25.25;19.85;;;;;;;15.08;68.04;102352.59;5025959;27;104259;-64
2021/10/29 08:25:44;;;;;;;27.83;20.25;;;;;;;15.07;67.67;102357.28;5023608;27;102266;-65
2021/10/29 08:28:10;;;;;;;24.63;19.52;;;;;;;15.08;67.81;102358.09;5027669;27;104499;-65
2021/10/29 08:30:37;;;;;;;28.45;19.58;;;;;;;15.08;67.67;102353.44;5030514;27;102490;-64
2021/10/29 08:33:03;;;;;;;23.10;19.23;;;;;;;15.07;67.79;102357.28;5024011;27;103298;-65
2021/10/29 08:35:30;;;;;;;27.33;19.60;;;;;;;15.08;67.78;102350.69;5027827;27;102207;-65
2021/10/29 08:37:57;;;;;;;26.17;19.70;;;;;;;15.07;67.72;102354.53;5035480;27;104458;-64
2021/10/29 08:40:25;;;;;;;27.10;20.45;;;;;;;15.07;67.92;102354.53;5026435;27;102834;-64
2021/10/29 08:42:52;;;;;;;27.58;21.27;;;;;;;15.07;67.71;102360.00;5029747;27;102839;-65
2021/10/29 08:45:19;;;;;;;29.23;21.10;;;;;;;15.07;67.85;102359.16;5021698;27;102250;-65
2021/10/29 08:47:47;;;;;;;29.95;21.73;;;;;;;15.07;67.78;102357.28;5027880;27;103976;-65
2021/10/29 08:50:16;;;;;;;26.77;21.08;;;;;;;15.06;67.64;102355.59;5022025;27;102670;-64
2021/10/29 08:52:44;;;;;;;27.13;21.20;;;;;;;15.06;67.58;102360.25;5027348;27;102263;-64
2021/10/29 08:55:12;;;;;;;27.27;21.23;;;;;;;15.07;67.77;102357.28;5028618;27;102388;-65
2021/10/29 08:57:42;;;;;;;28.35;21.85;;;;;;;15.07;68.00;102360.00;5024386;27;102326;-64
2021/10/29 09:00:14;;;;;;;25.25;21.25;;;;;;;15.07;68.02;102367.38;5022130;27;102536;-64
2021/10/29 09:02:44;;;;;;;26.90;21.48;;;;;;;15.07;67.98;102361.91;5024016;27;102731;-64
2021/10/29 09:05:26;;;;;;;23.65;20.60;;;;;;;15.06;67.97;102361.09;5028058;27;102485;-65
2021/10/29 09:08:08;;;;;;;29.25;21.80;;;;;;;15.06;68.12;102358.34;5020286;27;106116;-64
2021/10/29 09:11:47;;;;;;;28.85;23.23;;;;;;;15.06;68.00;102363.81;5025325;27;102917;-64
2021/10/29 09:34:12;;;;;;;29.55;24.00;;;;;;;15.06;67.74;102355.59;5002676;28;102618;-65
2021/10/29 09:36:40;;;;;;;27.70;23.45;;;;;;;15.06;67.67;102361.09;5012878;27;102144;-66
2021/10/29 09:39:08;;;;;;;27.60;23.37;;;;;;;15.07;67.39;102357.28;5027370;27;102556;-64
2021/10/29 09:41:35;;;;;;;27.08;23.42;;;;;;;15.07;67.87;102361.91;5025664;27;104429;-64
2021/10/29 09:44:04;;;;;;;29.42;23.25;;;;;;;15.08;67.91;102364.41;5026017;27;102516;-64
2021/10/29 09:46:48;;;;;;;29.90;23.90;;;;;;;15.08;68.05;102366.31;5025236;27;102909;-63
2021/10/29 09:49:20;;;;;;;27.85;23.35;;;;;;;15.07;67.75;102368.25;5026314;27;102180;-64
2021/10/29 09:51:52;;;;;;;28.80;23.38;;;;;;;15.08;67.61;102356.19;5029962;27;103872;-64
2021/10/29 09:54:26;;;;;;;29.17;23.55;;;;;;;15.08;67.93;102358.91;5021451;27;102158;-64
2021/10/29 09:56:53;;;;;;;28.88;22.55;;;;;;;15.07;67.67;102362.75;5024256;27;102280;-64
2021/10/29 09:59:21;;;;;;;28.42;24.25;;;;;;;15.09;67.50;102365.22;5026397;27;102247;-64
2021/10/29 10:01:49;;;;;;;26.88;23.15;;;;;;;15.09;67.61;102359.75;5026809;27;105233;-64
2021/10/29 10:04:18;;;;;;;29.85;23.17;;;;;;;15.08;68.01;102358.09;5026644;27;102178;-63
2021/10/29 10:06:45;;;;;;;27.88;22.42;;;;;;;15.08;67.60;102356.19;5018080;27;102577;-63
2021/10/29 10:09:38;;;;;;;27.08;22.08;;;;;;;15.09;67.95;102359.75;5023528;27;104000;-64
2021/10/29 10:12:05;;;;;;;27.05;22.65;;;;;;;15.08;67.59;102352.59;5028835;27;103879;-64
2021/10/29 10:14:33;;;;;;;26.50;22.33;;;;;;;15.08;67.91;102358.91;5023528;27;102349;-64
2021/10/29 10:17:01;;;;;;;26.33;21.80;;;;;;;15.09;67.54;102360.56;5027121;27;102166;-65
2021/10/29 10:19:27;;;;;;;27.85;22.58;;;;;;;15.09;67.54;102354.25;5030793;27;102498;-64
2021/10/29 10:21:56;;;;;;;26.88;22.05;;;;;;;15.08;67.76;102361.66;5025099;27;103912;-63
2021/10/29 10:24:27;;;;;;;25.50;20.17;;;;;;;15.09;68.13;102365.22;5032117;22;104527;-65
2021/10/29 10:27:20;;;;;;;25.58;20.88;;;;;;;15.09;68.29;102363.31;5023165;27;103211;-65
2021/10/29 10:48:24;;;;;;;22.93;18.73;;;;;;;15.09;67.86;102355.06;5029064;27;102683;-65
2021/10/29 10:50:54;;;;;;;22.75;18.50;;;;;;;15.10;67.37;102350.41;5035741;27;101973;-66
2021/10/29 10:53:40;;;;;;;21.38;17.92;;;;;;;15.10;67.94;102353.97;5031318;27;104022;-65
2021/10/29 10:56:46;;;;;;;22.40;17.77;;;;;;;15.09;68.12;102349.59;5030480;27;102442;-65
2021/10/29 11:10:22;;;;;;;19.63;15.10;;;;;;;15.09;67.75;102344.09;5031182;27;102265;-66
2021/10/29 11:13:19;;;;;;;21.63;16.27;;;;;;;15.09;67.88;102338.63;5032733;27;102220;-65
2021/10/29 11:15:59;;;;;;;21.15;15.52;;;;;;;15.09;67.84;102338.63;4990143;28;103767;-65
2021/10/29 11:18:34;;;;;;;19.73;14.88;;;;;;;15.10;67.84;102342.19;5024486;27;102227;-65
2021/10/29 11:21:20;;;;;;;20.90;14.40;;;;;;;15.10;67.64;102334.78;5034825;27;103254;-65
2021/10/29 11:23:53;;;;;;;15.98;13.65;;;;;;;15.09;67.58;102332.31;5027317;27;102179;-66
2021/10/29 11:26:28;;;;;;;17.92;14.57;;;;;;;15.10;67.84;102336.72;5024377;27;108031;-65
2021/10/29 11:28:57;;;;;;;18.48;13.70;;;;;;;15.09;67.45;102333.13;5032224;27;103795;-65
2021/10/29 11:31:26;;;;;;;16.05;12.27;;;;;;;15.10;67.67;102331.22;5030692;27;102328;-65
2021/10/29 11:33:54;;;;;;;;;;;;;;;15.10;67.71;102334.78;5038666;27;102553;-67
2021/10/29 11:36:26;;;;;;;17.00;12.60;;;;;;;15.09;67.78;102337.81;5030163;27;102437;-65
2021/10/29 11:38:54;;;;;;;18.58;12.40;;;;;;;15.09;67.67;102338.63;5028909;27;102231;-65
2021/10/29 11:41:22;;;;;;;14.40;11.30;;;;;;;15.11;67.65;102335.59;5032030;27;102997;-66
2021/10/29 11:43:48;;;;;;;14.02;11.00;;;;;;;15.09;67.74;102335.88;5031551;27;102939;-66
2021/10/29 11:46:16;;;;;;;14.73;12.05;;;;;;;15.10;67.54;102337.53;5027123;27;103966;-66
2021/10/29 11:48:57;;;;;;;14.77;10.98;;;;;;;15.09;67.98;102333.13;5031695;27;102092;-66
2021/10/29 11:51:26;;;;;;;15.10;11.13;;;;;;;15.10;67.82;102331.22;5026302;27;102190;-66
2021/10/29 11:54:00;;;;;;;12.73;10.40;;;;;;;15.10;67.99;102332.03;5029602;27;103566;-66
2021/10/29 11:56:43;;;;;;;11.85;9.70;;;;;;;15.10;67.82;102334.78;5033075;27;104191;-66
2021/10/29 12:01:54;;;;;;;13.52;11.07;;;;;;;15.09;67.61;102333.13;5027796;27;102030;-66
2021/10/29 12:07:14;;;;;;;12.93;10.45;;;;;;;15.10;67.70;102333.97;5027771;28;104537;-65
2021/10/29 12:09:42;;;;;;;11.25;9.52;;;;;;;15.10;67.40;102350.41;5030053;28;102121;-65
2021/10/29 12:12:14;;;;;;;10.63;9.30;;;;;;;15.11;67.53;102336.47;5032313;27;102827;-66
2021/10/29 12:14:44;;;;;;;11.30;9.00;;;;;;;15.10;67.97;102337.53;5029806;27;102432;-64
2021/10/29 12:17:26;;;;;;;11.85;9.52;;;;;;;15.10;67.40;102329.31;5031234;27;104076;-66
2021/10/29 12:19:58;;;;;;;11.52;9.73;;;;;;;15.10;67.52;102329.31;5029421;27;102769;-65
2021/10/29 12:24:57;;;;;;;10.55;8.80;;;;;;;15.10;67.93;102337.53;5032704;27;102229;-65
2021/10/29 12:27:40;;;;;;;10.25;8.80;;;;;;;15.09;67.93;102341.38;5031608;27;104056;-66
2021/10/29 12:30:17;;;;;;;12.85;9.60;;;;;;;15.09;67.94;102333.13;5022715;27;102876;-66
2021/10/29 13:03:22;;;;;;;10.15;8.82;;;;;;;15.10;67.80;102328.47;5023790;27;102182;-65
2021/10/29 13:05:53;;;;;;;10.30;9.00;;;;;;;15.11;67.64;102330.97;5034891;27;102211;-65
2021/10/29 13:08:21;;;;;;;11.57;8.98;;;;;;;15.11;67.67;102330.97;5032005;27;102517;-65
2021/10/29 13:10:53;;;;;;;11.45;8.45;;;;;;;15.11;67.95;102320.00;5033319;27;104020;-65
2021/10/29 13:13:34;;;;;;;9.98;8.70;;;;;;;15.10;67.40;102321.06;5024954;27;102121;-66
2021/10/29 13:16:03;;;;;;;10.40;8.45;;;;;;;15.11;67.76;102328.22;5031838;27;102470;-65
2021/10/29 13:19:00;;;;;;;12.05;9.13;;;;;;;15.11;67.77;102328.22;5027534;27;102471;-65
2021/10/29 13:22:47;;;;;;;13.77;9.63;;;;;;;15.11;67.63;102330.97;5028002;27;106152;-65
2021/10/29 13:51:25;;;;;;;17.92;11.27;;;;;;;15.12;67.76;102310.69;5033719;28;102404;-65
2021/10/29 13:54:04;;;;;;;15.73;11.13;;;;;;;15.12;67.65;102310.69;5025307;28;107969;-65
2021/10/29 13:59:26;;;;;;;16.15;10.98;;;;;;;15.11;67.76;102309.03;5030963;27;102464;-65
2021/10/29 14:32:10;;;;;;;11.80;8.95;;;;;;;15.12;67.58;102320.84;5051938;27;102578;-65
2021/10/29 14:34:51;;;;;;;14.98;9.65;;;;;;;15.11;67.88;102320.00;5043948;27;105468;-65
2021/10/29 14:37:28;;;;;;;10.63;9.18;;;;;;;15.12;67.70;102313.44;5040304;27;107860;-65
2021/10/29 14:42:49;;;;;;;13.05;9.55;;;;;;;15.12;67.48;102316.16;5040078;27;102103;-65
2021/10/29 14:45:20;;;;;;;12.95;9.48;;;;;;;15.11;67.60;102317.25;5038461;27;102290;-65